sensor_id;sensor_type;location;lat;lon;timestamp;P1;durP1;ratioP1;P2;durP2;ratioP2
55292;SDS011;41157;53.560;10.098;2023-04-08T00:01:51;19.50;;;10.00;;
55292;SDS011;41157;53.560;10.098;2023-04-08T00:04:18;15.93;;;10.70;;
55292;SDS011;41157;53.560;10.098;2023-04-08T00:06:45;16.03;;;10.07;;
55292;SDS011;41157;53.560;10.098;2023-04-08T00:09:13;14.63;;;9.90;;
55292;SDS011;41157;53.560;10.098;2023-04-08T00:11:40;19.77;;;11.37;;
55292;SDS011;41157;53.560;10.098;2023-04-08T00:14:07;19.13;;;11.03;;
55292;SDS011;41157;53.560;10.098;2023-04-08T00:16:34;16.37;;;10.93;;
55292;SDS011;41157;53.560;10.098;2023-04-08T00:19:01;19.93;;;11.47;;
55292;SDS011;41157;53.560;10.098;2023-04-08T00:21:30;17.60;;;10.70;;
55292;SDS011;41157;53.560;10.098;2023-04-08T00:23:57;14.20;;;10.13;;
55292;SDS011;41157;53.560;10.098;2023-04-08T00:26:25;19.37;;;11.10;;
55292;SDS011;41157;53.560;10.098;2023-04-08T00:28:52;21.70;;;11.07;;
55292;SDS011;41157;53.560;10.098;2023-04-08T00:31:19;20.63;;;12.10;;
55292;SDS011;41157;53.560;10.098;2023-04-08T00:33:46;17.57;;;10.93;;
55292;SDS011;41157;53.560;10.098;2023-04-08T00:36:13;16.17;;;11.07;;
55292;SDS011;41157;53.560;10.098;2023-04-08T00:38:40;16.90;;;11.03;;
55292;SDS011;41157;53.560;10.098;2023-04-08T00:41:07;21.90;;;11.30;;
55292;SDS011;41157;53.560;10.098;2023-04-08T00:43:36;17.17;;;10.47;;
55292;SDS011;41157;53.560;10.098;2023-04-08T00:46:03;18.23;;;10.80;;
55292;SDS011;41157;53.560;10.098;2023-04-08T00:48:30;18.70;;;10.10;;
55292;SDS011;41157;53.560;10.098;2023-04-08T00:50:57;14.33;;;10.00;;
55292;SDS011;41157;53.560;10.098;2023-04-08T00:53:24;16.03;;;10.17;;
55292;SDS011;41157;53.560;10.098;2023-04-08T00:55:51;14.87;;;10.47;;
55292;SDS011;41157;53.560;10.098;2023-04-08T00:58:18;13.27;;;9.00;;
55292;SDS011;41157;53.560;10.098;2023-04-08T01:00:48;14.10;;;9.47;;
55292;SDS011;41157;53.560;10.098;2023-04-08T01:03:18;12.43;;;8.67;;
55292;SDS011;41157;53.560;10.098;2023-04-08T01:05:51;12.63;;;8.23;;
55292;SDS011;41157;53.560;10.098;2023-04-08T01:08:20;11.40;;;8.67;;
55292;SDS011;41157;53.560;10.098;2023-04-08T01:10:48;12.33;;;7.90;;
55292;SDS011;41157;53.560;10.098;2023-04-08T01:13:17;11.87;;;8.33;;
55292;SDS011;41157;53.560;10.098;2023-04-08T01:15:44;15.40;;;8.50;;
55292;SDS011;41157;53.560;10.098;2023-04-08T01:18:13;15.80;;;8.17;;
55292;SDS011;41157;53.560;10.098;2023-04-08T01:20:41;12.97;;;8.23;;
55292;SDS011;41157;53.560;10.098;2023-04-08T01:23:09;10.90;;;8.27;;
55292;SDS011;41157;53.560;10.098;2023-04-08T01:25:38;14.10;;;8.63;;
55292;SDS011;41157;53.560;10.098;2023-04-08T01:28:07;15.37;;;8.60;;
55292;SDS011;41157;53.560;10.098;2023-04-08T01:30:37;13.30;;;8.53;;
55292;SDS011;41157;53.560;10.098;2023-04-08T01:33:04;17.33;;;9.53;;
55292;SDS011;41157;53.560;10.098;2023-04-08T01:35:31;12.93;;;9.00;;
55292;SDS011;41157;53.560;10.098;2023-04-08T01:37:59;13.77;;;8.90;;
55292;SDS011;41157;53.560;10.098;2023-04-08T01:40:26;16.03;;;10.03;;
55292;SDS011;41157;53.560;10.098;2023-04-08T01:42:54;16.00;;;10.20;;
55292;SDS011;41157;53.560;10.098;2023-04-08T01:45:23;17.97;;;9.40;;
55292;SDS011;41157;53.560;10.098;2023-04-08T01:47:50;18.67;;;9.70;;
55292;SDS011;41157;53.560;10.098;2023-04-08T01:50:18;15.23;;;9.80;;
55292;SDS011;41157;53.560;10.098;2023-04-08T01:52:46;20.40;;;10.83;;
55292;SDS011;41157;53.560;10.098;2023-04-08T01:55:14;15.40;;;9.67;;
55292;SDS011;41157;53.560;10.098;2023-04-08T01:57:42;21.30;;;10.37;;
55292;SDS011;41157;53.560;10.098;2023-04-08T02:00:11;18.87;;;10.77;;
55292;SDS011;41157;53.560;10.098;2023-04-08T02:02:40;18.57;;;9.87;;
55292;SDS011;41157;53.560;10.098;2023-04-08T02:05:08;17.23;;;10.40;;
55292;SDS011;41157;53.560;10.098;2023-04-08T02:07:35;12.50;;;9.13;;
55292;SDS011;41157;53.560;10.098;2023-04-08T02:10:02;13.23;;;8.77;;
55292;SDS011;41157;53.560;10.098;2023-04-08T02:12:29;16.80;;;10.20;;
55292;SDS011;41157;53.560;10.098;2023-04-08T02:14:56;16.83;;;9.77;;
55292;SDS011;41157;53.560;10.098;2023-04-08T02:17:24;16.60;;;9.67;;
55292;SDS011;41157;53.560;10.098;2023-04-08T02:19:56;16.13;;;9.90;;
55292;SDS011;41157;53.560;10.098;2023-04-08T02:22:27;12.13;;;8.23;;
55292;SDS011;41157;53.560;10.098;2023-04-08T02:24:55;12.93;;;8.57;;
55292;SDS011;41157;53.560;10.098;2023-04-08T02:27:23;14.87;;;8.23;;
55292;SDS011;41157;53.560;10.098;2023-04-08T02:29:50;12.03;;;7.67;;
55292;SDS011;41157;53.560;10.098;2023-04-08T02:32:18;14.33;;;8.70;;
55292;SDS011;41157;53.560;10.098;2023-04-08T02:34:46;9.83;;;7.80;;
55292;SDS011;41157;53.560;10.098;2023-04-08T02:37:14;10.43;;;8.10;;
55292;SDS011;41157;53.560;10.098;2023-04-08T02:39:42;10.20;;;8.20;;
55292;SDS011;41157;53.560;10.098;2023-04-08T02:42:09;10.77;;;8.10;;
55292;SDS011;41157;53.560;10.098;2023-04-08T02:44:36;12.67;;;8.13;;
55292;SDS011;41157;53.560;10.098;2023-04-08T02:47:03;15.97;;;8.17;;
55292;SDS011;41157;53.560;10.098;2023-04-08T02:49:30;12.63;;;8.37;;
55292;SDS011;41157;53.560;10.098;2023-04-08T02:51:58;12.60;;;8.50;;
55292;SDS011;41157;53.560;10.098;2023-04-08T02:54:26;11.63;;;7.93;;
55292;SDS011;41157;53.560;10.098;2023-04-08T02:56:53;13.47;;;8.20;;
55292;SDS011;41157;53.560;10.098;2023-04-08T02:59:20;12.67;;;8.30;;
55292;SDS011;41157;53.560;10.098;2023-04-08T03:01:47;13.60;;;8.43;;
55292;SDS011;41157;53.560;10.098;2023-04-08T03:04:15;10.87;;;8.07;;
55292;SDS011;41157;53.560;10.098;2023-04-08T03:06:42;9.97;;;7.83;;
55292;SDS011;41157;53.560;10.098;2023-04-08T03:09:09;15.27;;;8.67;;
55292;SDS011;41157;53.560;10.098;2023-04-08T03:11:38;13.73;;;8.93;;
55292;SDS011;41157;53.560;10.098;2023-04-08T03:14:05;11.83;;;8.93;;
55292;SDS011;41157;53.560;10.098;2023-04-08T03:16:32;11.97;;;8.63;;
55292;SDS011;41157;53.560;10.098;2023-04-08T03:18:59;11.40;;;9.20;;
55292;SDS011;41157;53.560;10.098;2023-04-08T03:21:27;15.27;;;9.67;;
55292;SDS011;41157;53.560;10.098;2023-04-08T03:23:55;15.37;;;10.33;;
55292;SDS011;41157;53.560;10.098;2023-04-08T03:26:22;16.27;;;9.90;;
55292;SDS011;41157;53.560;10.098;2023-04-08T03:28:52;14.30;;;10.53;;
55292;SDS011;41157;53.560;10.098;2023-04-08T03:31:19;19.70;;;10.80;;
55292;SDS011;41157;53.560;10.098;2023-04-08T03:33:46;14.53;;;10.53;;
55292;SDS011;41157;53.560;10.098;2023-04-08T03:36:13;15.40;;;10.87;;
55292;SDS011;41157;53.560;10.098;2023-04-08T03:38:41;17.30;;;11.67;;
55292;SDS011;41157;53.560;10.098;2023-04-08T03:41:08;18.30;;;10.77;;
55292;SDS011;41157;53.560;10.098;2023-04-08T03:43:35;18.90;;;11.80;;
55292;SDS011;41157;53.560;10.098;2023-04-08T03:46:03;21.17;;;12.80;;
55292;SDS011;41157;53.560;10.098;2023-04-08T03:48:30;19.10;;;12.53;;
55292;SDS011;41157;53.560;10.098;2023-04-08T03:50:57;20.07;;;13.00;;
55292;SDS011;41157;53.560;10.098;2023-04-08T03:53:24;19.20;;;12.23;;
55292;SDS011;41157;53.560;10.098;2023-04-08T03:55:53;21.37;;;12.87;;
55292;SDS011;41157;53.560;10.098;2023-04-08T03:58:20;22.23;;;14.17;;
55292;SDS011;41157;53.560;10.098;2023-04-08T04:00:47;23.80;;;14.33;;
55292;SDS011;41157;53.560;10.098;2023-04-08T04:03:15;24.43;;;13.97;;
55292;SDS011;41157;53.560;10.098;2023-04-08T04:05:42;23.33;;;15.40;;
55292;SDS011;41157;53.560;10.098;2023-04-08T04:08:09;23.43;;;15.07;;
55292;SDS011;41157;53.560;10.098;2023-04-08T04:10:36;25.10;;;14.57;;
55292;SDS011;41157;53.560;10.098;2023-04-08T04:13:03;26.83;;;14.20;;
55292;SDS011;41157;53.560;10.098;2023-04-08T04:15:30;21.93;;;13.60;;
55292;SDS011;41157;53.560;10.098;2023-04-08T04:17:57;24.50;;;14.83;;
55292;SDS011;41157;53.560;10.098;2023-04-08T04:20:26;26.17;;;14.90;;
55292;SDS011;41157;53.560;10.098;2023-04-08T04:22:54;25.50;;;15.33;;
55292;SDS011;41157;53.560;10.098;2023-04-08T04:25:21;22.87;;;14.83;;
55292;SDS011;41157;53.560;10.098;2023-04-08T04:27:48;27.27;;;14.67;;
55292;SDS011;41157;53.560;10.098;2023-04-08T04:30:15;24.23;;;14.73;;
55292;SDS011;41157;53.560;10.098;2023-04-08T04:32:43;23.07;;;14.83;;
55292;SDS011;41157;53.560;10.098;2023-04-08T04:35:10;24.47;;;14.47;;
55292;SDS011;41157;53.560;10.098;2023-04-08T04:37:39;26.83;;;14.77;;
55292;SDS011;41157;53.560;10.098;2023-04-08T04:40:06;29.23;;;14.33;;
55292;SDS011;41157;53.560;10.098;2023-04-08T04:42:33;26.47;;;14.27;;
55292;SDS011;41157;53.560;10.098;2023-04-08T04:45:00;25.13;;;14.63;;
55292;SDS011;41157;53.560;10.098;2023-04-08T04:47:27;21.70;;;14.07;;
55292;SDS011;41157;53.560;10.098;2023-04-08T04:49:56;23.30;;;13.33;;
55292;SDS011;41157;53.560;10.098;2023-04-08T04:52:23;23.57;;;13.17;;
55292;SDS011;41157;53.560;10.098;2023-04-08T04:54:51;26.83;;;14.20;;
55292;SDS011;41157;53.560;10.098;2023-04-08T04:57:18;23.27;;;13.43;;
55292;SDS011;41157;53.560;10.098;2023-04-08T04:59:45;22.60;;;13.57;;
55292;SDS011;41157;53.560;10.098;2023-04-08T05:02:12;21.17;;;12.67;;
55292;SDS011;41157;53.560;10.098;2023-04-08T05:04:39;22.53;;;13.27;;
55292;SDS011;41157;53.560;10.098;2023-04-08T05:07:06;20.40;;;12.67;;
55292;SDS011;41157;53.560;10.098;2023-04-08T05:09:33;24.33;;;12.53;;
55292;SDS011;41157;53.560;10.098;2023-04-08T05:12:02;21.20;;;13.40;;
55292;SDS011;41157;53.560;10.098;2023-04-08T05:14:29;23.13;;;13.30;;
55292;SDS011;41157;53.560;10.098;2023-04-08T05:16:56;26.30;;;14.23;;
55292;SDS011;41157;53.560;10.098;2023-04-08T05:19:23;22.83;;;13.43;;
55292;SDS011;41157;53.560;10.098;2023-04-08T05:21:50;22.00;;;12.93;;
55292;SDS011;41157;53.560;10.098;2023-04-08T05:24:17;22.37;;;12.50;;
55292;SDS011;41157;53.560;10.098;2023-04-08T05:26:44;20.30;;;11.30;;
55292;SDS011;41157;53.560;10.098;2023-04-08T05:29:13;26.47;;;12.37;;
55292;SDS011;41157;53.560;10.098;2023-04-08T05:31:40;17.90;;;12.00;;
55292;SDS011;41157;53.560;10.098;2023-04-08T05:34:07;19.00;;;12.00;;
55292;SDS011;41157;53.560;10.098;2023-04-08T05:36:34;20.20;;;11.00;;
55292;SDS011;41157;53.560;10.098;2023-04-08T05:39:01;19.87;;;11.63;;
55292;SDS011;41157;53.560;10.098;2023-04-08T05:41:28;19.90;;;12.10;;
55292;SDS011;41157;53.560;10.098;2023-04-08T05:43:55;21.63;;;12.80;;
55292;SDS011;41157;53.560;10.098;2023-04-08T05:46:24;21.57;;;12.37;;
55292;SDS011;41157;53.560;10.098;2023-04-08T05:48:51;22.67;;;12.07;;
55292;SDS011;41157;53.560;10.098;2023-04-08T05:51:18;21.83;;;11.87;;
55292;SDS011;41157;53.560;10.098;2023-04-08T05:53:45;23.47;;;12.50;;
55292;SDS011;41157;53.560;10.098;2023-04-08T05:56:12;21.40;;;11.77;;
55292;SDS011;41157;53.560;10.098;2023-04-08T05:58:39;23.37;;;12.83;;
55292;SDS011;41157;53.560;10.098;2023-04-08T06:01:06;23.63;;;11.97;;
55292;SDS011;41157;53.560;10.098;2023-04-08T06:03:34;21.10;;;12.43;;
55292;SDS011;41157;53.560;10.098;2023-04-08T06:06:01;23.67;;;11.53;;
55292;SDS011;41157;53.560;10.098;2023-04-08T06:08:28;22.13;;;12.53;;
55292;SDS011;41157;53.560;10.098;2023-04-08T06:10:55;23.47;;;12.50;;
55292;SDS011;41157;53.560;10.098;2023-04-08T06:13:22;23.60;;;12.60;;
55292;SDS011;41157;53.560;10.098;2023-04-08T06:15:50;22.93;;;13.13;;
55292;SDS011;41157;53.560;10.098;2023-04-08T06:18:17;21.47;;;13.10;;
55292;SDS011;41157;53.560;10.098;2023-04-08T06:20:46;20.73;;;12.80;;
55292;SDS011;41157;53.560;10.098;2023-04-08T06:23:14;25.47;;;13.27;;
55292;SDS011;41157;53.560;10.098;2023-04-08T06:25:41;23.37;;;13.13;;
55292;SDS011;41157;53.560;10.098;2023-04-08T06:28:08;23.87;;;14.23;;
55292;SDS011;41157;53.560;10.098;2023-04-08T06:30:36;25.17;;;13.70;;
55292;SDS011;41157;53.560;10.098;2023-04-08T06:33:03;21.93;;;13.77;;
55292;SDS011;41157;53.560;10.098;2023-04-08T06:35:30;29.17;;;14.00;;
55292;SDS011;41157;53.560;10.098;2023-04-08T06:37:58;23.63;;;13.80;;
55292;SDS011;41157;53.560;10.098;2023-04-08T06:40:25;21.37;;;12.83;;
55292;SDS011;41157;53.560;10.098;2023-04-08T06:42:52;23.53;;;13.23;;
55292;SDS011;41157;53.560;10.098;2023-04-08T06:45:19;22.13;;;13.17;;
55292;SDS011;41157;53.560;10.098;2023-04-08T06:47:47;22.73;;;13.23;;
55292;SDS011;41157;53.560;10.098;2023-04-08T06:50:15;25.87;;;13.80;;
55292;SDS011;41157;53.560;10.098;2023-04-08T06:52:42;20.60;;;12.77;;
55292;SDS011;41157;53.560;10.098;2023-04-08T06:55:11;21.13;;;13.73;;
55292;SDS011;41157;53.560;10.098;2023-04-08T06:57:38;25.33;;;14.37;;
55292;SDS011;41157;53.560;10.098;2023-04-08T07:00:05;21.20;;;14.33;;
55292;SDS011;41157;53.560;10.098;2023-04-08T07:02:32;22.93;;;13.30;;
55292;SDS011;41157;53.560;10.098;2023-04-08T07:05:00;25.77;;;13.53;;
55292;SDS011;41157;53.560;10.098;2023-04-08T07:07:28;21.17;;;13.37;;
55292;SDS011;41157;53.560;10.098;2023-04-08T07:09:56;21.33;;;13.73;;
55292;SDS011;41157;53.560;10.098;2023-04-08T07:12:24;24.63;;;14.47;;
55292;SDS011;41157;53.560;10.098;2023-04-08T07:14:51;25.20;;;14.67;;
55292;SDS011;41157;53.560;10.098;2023-04-08T07:17:18;20.23;;;13.60;;
55292;SDS011;41157;53.560;10.098;2023-04-08T07:19:45;22.20;;;13.67;;
55292;SDS011;41157;53.560;10.098;2023-04-08T07:22:13;19.97;;;11.60;;
55292;SDS011;41157;53.560;10.098;2023-04-08T07:24:41;18.73;;;12.10;;
55292;SDS011;41157;53.560;10.098;2023-04-08T07:27:13;20.33;;;11.30;;
55292;SDS011;41157;53.560;10.098;2023-04-08T07:29:41;17.00;;;10.67;;
55292;SDS011;41157;53.560;10.098;2023-04-08T07:32:08;20.17;;;11.70;;
55292;SDS011;41157;53.560;10.098;2023-04-08T07:34:35;18.40;;;11.30;;
55292;SDS011;41157;53.560;10.098;2023-04-08T07:37:02;19.17;;;11.40;;
55292;SDS011;41157;53.560;10.098;2023-04-08T07:39:29;16.57;;;11.33;;
55292;SDS011;41157;53.560;10.098;2023-04-08T07:41:56;17.57;;;9.70;;
55292;SDS011;41157;53.560;10.098;2023-04-08T07:44:23;19.63;;;10.57;;
55292;SDS011;41157;53.560;10.098;2023-04-08T07:46:52;17.97;;;10.43;;
55292;SDS011;41157;53.560;10.098;2023-04-08T07:49:19;18.37;;;11.00;;
55292;SDS011;41157;53.560;10.098;2023-04-08T07:51:46;17.50;;;10.80;;
55292;SDS011;41157;53.560;10.098;2023-04-08T07:54:13;18.27;;;10.23;;
55292;SDS011;41157;53.560;10.098;2023-04-08T07:56:41;17.70;;;10.67;;
55292;SDS011;41157;53.560;10.098;2023-04-08T07:59:08;15.40;;;10.37;;
55292;SDS011;41157;53.560;10.098;2023-04-08T08:01:36;15.50;;;10.23;;
55292;SDS011;41157;53.560;10.098;2023-04-08T08:04:04;16.67;;;10.93;;
55292;SDS011;41157;53.560;10.098;2023-04-08T08:06:31;16.20;;;10.43;;
55292;SDS011;41157;53.560;10.098;2023-04-08T08:08:58;19.57;;;12.53;;
55292;SDS011;41157;53.560;10.098;2023-04-08T08:11:25;18.93;;;11.20;;
55292;SDS011;41157;53.560;10.098;2023-04-08T08:13:52;18.03;;;11.17;;
55292;SDS011;41157;53.560;10.098;2023-04-08T08:16:19;19.17;;;11.23;;
55292;SDS011;41157;53.560;10.098;2023-04-08T08:18:46;18.67;;;11.43;;
55292;SDS011;41157;53.560;10.098;2023-04-08T08:21:15;19.70;;;12.70;;
55292;SDS011;41157;53.560;10.098;2023-04-08T08:23:42;20.90;;;12.30;;
55292;SDS011;41157;53.560;10.098;2023-04-08T08:26:09;19.27;;;11.60;;
55292;SDS011;41157;53.560;10.098;2023-04-08T08:28:36;19.50;;;12.40;;
55292;SDS011;41157;53.560;10.098;2023-04-08T08:31:03;26.50;;;12.40;;
55292;SDS011;41157;53.560;10.098;2023-04-08T08:33:31;20.70;;;12.37;;
55292;SDS011;41157;53.560;10.098;2023-04-08T08:35:58;21.77;;;11.77;;
55292;SDS011;41157;53.560;10.098;2023-04-08T08:38:26;19.57;;;11.57;;
55292;SDS011;41157;53.560;10.098;2023-04-08T08:40:53;20.77;;;11.37;;
55292;SDS011;41157;53.560;10.098;2023-04-08T08:43:21;20.67;;;11.63;;
55292;SDS011;41157;53.560;10.098;2023-04-08T08:45:48;16.40;;;10.87;;
55292;SDS011;41157;53.560;10.098;2023-04-08T08:48:15;16.07;;;10.50;;
55292;SDS011;41157;53.560;10.098;2023-04-08T08:50:42;19.43;;;10.77;;
55292;SDS011;41157;53.560;10.098;2023-04-08T08:53:09;21.37;;;10.30;;
55292;SDS011;41157;53.560;10.098;2023-04-08T08:55:38;17.50;;;10.43;;
55292;SDS011;41157;53.560;10.098;2023-04-08T08:58:05;15.80;;;9.77;;
55292;SDS011;41157;53.560;10.098;2023-04-08T09:00:32;18.27;;;11.03;;
55292;SDS011;41157;53.560;10.098;2023-04-08T09:03:12;14.10;;;9.57;;
55292;SDS011;41157;53.560;10.098;2023-04-08T09:05:46;15.13;;;9.80;;
55292;SDS011;41157;53.560;10.098;2023-04-08T09:08:21;13.50;;;9.83;;
55292;SDS011;41157;53.560;10.098;2023-04-08T09:10:50;15.53;;;9.57;;
55292;SDS011;41157;53.560;10.098;2023-04-08T09:13:17;14.93;;;9.97;;
55292;SDS011;41157;53.560;10.098;2023-04-08T09:16:00;15.63;;;10.17;;
55292;SDS011;41157;53.560;10.098;2023-04-08T09:18:28;19.90;;;9.97;;
55292;SDS011;41157;53.560;10.098;2023-04-08T09:20:55;16.30;;;9.77;;
55292;SDS011;41157;53.560;10.098;2023-04-08T09:23:22;14.23;;;8.90;;
55292;SDS011;41157;53.560;10.098;2023-04-08T09:25:51;12.43;;;8.67;;
55292;SDS011;41157;53.560;10.098;2023-04-08T09:28:18;13.80;;;9.30;;
55292;SDS011;41157;53.560;10.098;2023-04-08T09:30:45;14.87;;;9.53;;
55292;SDS011;41157;53.560;10.098;2023-04-08T09:33:12;14.17;;;9.13;;
55292;SDS011;41157;53.560;10.098;2023-04-08T09:35:40;14.30;;;8.50;;
55292;SDS011;41157;53.560;10.098;2023-04-08T09:38:07;16.20;;;9.67;;
55292;SDS011;41157;53.560;10.098;2023-04-08T09:40:34;16.97;;;9.80;;
55292;SDS011;41157;53.560;10.098;2023-04-08T09:43:04;17.50;;;9.63;;
55292;SDS011;41157;53.560;10.098;2023-04-08T09:45:31;16.50;;;9.23;;
55292;SDS011;41157;53.560;10.098;2023-04-08T09:48:00;14.73;;;10.00;;
55292;SDS011;41157;53.560;10.098;2023-04-08T09:50:31;17.60;;;10.37;;
55292;SDS011;41157;53.560;10.098;2023-04-08T09:52:59;17.80;;;11.03;;
55292;SDS011;41157;53.560;10.098;2023-04-08T09:55:28;16.53;;;10.87;;
55292;SDS011;41157;53.560;10.098;2023-04-08T09:57:57;16.20;;;10.67;;
55292;SDS011;41157;53.560;10.098;2023-04-08T10:00:29;14.57;;;10.13;;
55292;SDS011;41157;53.560;10.098;2023-04-08T10:03:01;17.47;;;10.57;;
55292;SDS011;41157;53.560;10.098;2023-04-08T10:05:32;15.73;;;10.60;;
55292;SDS011;41157;53.560;10.098;2023-04-08T10:08:00;15.80;;;10.57;;
55292;SDS011;41157;53.560;10.098;2023-04-08T10:10:27;16.77;;;10.67;;
55292;SDS011;41157;53.560;10.098;2023-04-08T10:12:54;16.43;;;11.10;;
55292;SDS011;41157;53.560;10.098;2023-04-08T10:15:22;19.90;;;11.67;;
55292;SDS011;41157;53.560;10.098;2023-04-08T10:17:51;19.93;;;12.37;;
55292;SDS011;41157;53.560;10.098;2023-04-08T10:23:06;18.93;;;12.63;;
55292;SDS011;41157;53.560;10.098;2023-04-08T10:25:34;22.20;;;12.33;;
55292;SDS011;41157;53.560;10.098;2023-04-08T10:28:22;20.87;;;12.43;;
55292;SDS011;41157;53.560;10.098;2023-04-08T10:30:48;19.53;;;12.60;;
55292;SDS011;41157;53.560;10.098;2023-04-08T10:33:18;22.00;;;13.07;;
